sensor_id;sensor_type;location;lat;lon;timestamp;P1;durP1;ratioP1;P2;durP2;ratioP2
16468;SDS011;8345;50.902;6.956;2023-06-10T00:01:19;10.33;;;9.40;;
16468;SDS011;8345;50.902;6.956;2023-06-10T00:03:47;10.27;;;9.33;;
16468;SDS011;8345;50.902;6.956;2023-06-10T00:06:15;9.80;;;8.90;;
16468;SDS011;8345;50.902;6.956;2023-06-10T00:08:42;9.87;;;8.87;;
16468;SDS011;8345;50.902;6.956;2023-06-10T00:11:09;10.47;;;9.50;;
16468;SDS011;8345;50.902;6.956;2023-06-10T00:13:36;10.60;;;9.73;;
16468;SDS011;8345;50.902;6.956;2023-06-10T00:16:03;10.63;;;9.73;;
16468;SDS011;8345;50.902;6.956;2023-06-10T00:18:32;10.47;;;9.67;;
16468;SDS011;8345;50.902;6.956;2023-06-10T00:21:02;10.57;;;9.70;;
16468;SDS011;8345;50.902;6.956;2023-06-10T00:23:30;10.27;;;9.37;;
16468;SDS011;8345;50.902;6.956;2023-06-10T00:26:02;10.13;;;9.23;;
16468;SDS011;8345;50.902;6.956;2023-06-10T00:28:30;9.53;;;8.83;;
16468;SDS011;8345;50.902;6.956;2023-06-10T00:30:57;10.23;;;9.47;;
16468;SDS011;8345;50.902;6.956;2023-06-10T00:33:24;10.37;;;9.57;;
16468;SDS011;8345;50.902;6.956;2023-06-10T00:35:53;10.40;;;9.60;;
16468;SDS011;8345;50.902;6.956;2023-06-10T00:38:20;10.30;;;9.50;;
16468;SDS011;8345;50.902;6.956;2023-06-10T00:40:47;10.37;;;9.57;;
16468;SDS011;8345;50.902;6.956;2023-06-10T00:43:14;10.57;;;9.77;;
16468;SDS011;8345;50.902;6.956;2023-06-10T00:45:41;11.00;;;10.10;;
16468;SDS011;8345;50.902;6.956;2023-06-10T00:48:09;10.73;;;9.80;;
16468;SDS011;8345;50.902;6.956;2023-06-10T00:50:36;11.43;;;10.47;;
16468;SDS011;8345;50.902;6.956;2023-06-10T00:53:06;10.93;;;10.00;;
16468;SDS011;8345;50.902;6.956;2023-06-10T00:55:34;10.93;;;10.13;;
16468;SDS011;8345;50.902;6.956;2023-06-10T00:58:02;10.43;;;9.53;;
16468;SDS011;8345;50.902;6.956;2023-06-10T01:00:30;10.33;;;9.63;;
16468;SDS011;8345;50.902;6.956;2023-06-10T01:02:57;10.23;;;9.33;;
16468;SDS011;8345;50.902;6.956;2023-06-10T01:05:24;10.43;;;9.43;;
16468;SDS011;8345;50.902;6.956;2023-06-10T01:07:54;10.93;;;10.03;;
16468;SDS011;8345;50.902;6.956;2023-06-10T01:10:35;10.70;;;9.70;;
16468;SDS011;8345;50.902;6.956;2023-06-10T01:13:03;11.20;;;10.33;;
16468;SDS011;8345;50.902;6.956;2023-06-10T01:15:33;11.03;;;10.17;;
16468;SDS011;8345;50.902;6.956;2023-06-10T01:18:01;11.07;;;10.17;;
16468;SDS011;8345;50.902;6.956;2023-06-10T01:20:29;10.90;;;10.10;;
16468;SDS011;8345;50.902;6.956;2023-06-10T01:22:58;10.43;;;9.63;;
16468;SDS011;8345;50.902;6.956;2023-06-10T01:25:26;10.70;;;9.80;;
16468;SDS011;8345;50.902;6.956;2023-06-10T01:27:54;10.73;;;9.93;;
16468;SDS011;8345;50.902;6.956;2023-06-10T01:30:26;11.33;;;10.43;;
16468;SDS011;8345;50.902;6.956;2023-06-10T01:32:56;10.70;;;9.83;;
16468;SDS011;8345;50.902;6.956;2023-06-10T01:35:25;11.23;;;10.37;;
16468;SDS011;8345;50.902;6.956;2023-06-10T01:37:53;11.23;;;10.37;;
16468;SDS011;8345;50.902;6.956;2023-06-10T01:40:22;12.30;;;11.30;;
16468;SDS011;8345;50.902;6.956;2023-06-10T01:42:50;11.60;;;10.70;;
16468;SDS011;8345;50.902;6.956;2023-06-10T01:45:18;11.73;;;10.83;;
16468;SDS011;8345;50.902;6.956;2023-06-10T01:47:45;10.87;;;9.93;;
16468;SDS011;8345;50.902;6.956;2023-06-10T01:50:12;11.97;;;10.80;;
16468;SDS011;8345;50.902;6.956;2023-06-10T01:52:41;11.03;;;10.07;;
16468;SDS011;8345;50.902;6.956;2023-06-10T01:55:08;10.43;;;9.53;;
16468;SDS011;8345;50.902;6.956;2023-06-10T01:57:37;11.00;;;9.93;;
16468;SDS011;8345;50.902;6.956;2023-06-10T02:00:04;10.73;;;9.83;;
16468;SDS011;8345;50.902;6.956;2023-06-10T02:02:32;10.70;;;9.83;;
16468;SDS011;8345;50.902;6.956;2023-06-10T02:05:01;10.43;;;9.53;;
16468;SDS011;8345;50.902;6.956;2023-06-10T02:07:28;10.83;;;10.10;;
16468;SDS011;8345;50.902;6.956;2023-06-10T02:09:56;11.77;;;10.67;;
16468;SDS011;8345;50.902;6.956;2023-06-10T02:12:23;11.30;;;10.37;;
16468;SDS011;8345;50.902;6.956;2023-06-10T02:14:52;11.63;;;10.73;;
16468;SDS011;8345;50.902;6.956;2023-06-10T02:17:19;11.60;;;10.70;;
16468;SDS011;8345;50.902;6.956;2023-06-10T02:19:48;11.83;;;10.83;;
16468;SDS011;8345;50.902;6.956;2023-06-10T02:22:17;11.00;;;10.10;;
16468;SDS011;8345;50.902;6.956;2023-06-10T02:24:45;12.07;;;10.93;;
16468;SDS011;8345;50.902;6.956;2023-06-10T02:27:12;10.57;;;9.77;;
16468;SDS011;8345;50.902;6.956;2023-06-10T02:29:39;11.43;;;10.53;;
16468;SDS011;8345;50.902;6.956;2023-06-10T02:32:08;11.20;;;10.37;;
16468;SDS011;8345;50.902;6.956;2023-06-10T02:34:36;12.63;;;11.60;;
16468;SDS011;8345;50.902;6.956;2023-06-10T02:37:03;11.87;;;10.97;;
16468;SDS011;8345;50.902;6.956;2023-06-10T02:39:30;12.40;;;11.40;;
16468;SDS011;8345;50.902;6.956;2023-06-10T02:41:57;12.77;;;11.77;;
16468;SDS011;8345;50.902;6.956;2023-06-10T02:44:25;13.77;;;12.57;;
16468;SDS011;8345;50.902;6.956;2023-06-10T02:46:52;13.27;;;12.17;;
16468;SDS011;8345;50.902;6.956;2023-06-10T02:49:20;12.50;;;11.50;;
16468;SDS011;8345;50.902;6.956;2023-06-10T02:51:47;11.37;;;10.57;;
16468;SDS011;8345;50.902;6.956;2023-06-10T02:54:18;11.87;;;10.97;;
16468;SDS011;8345;50.902;6.956;2023-06-10T02:56:45;13.03;;;12.00;;
16468;SDS011;8345;50.902;6.956;2023-06-10T02:59:13;11.50;;;10.60;;
16468;SDS011;8345;50.902;6.956;2023-06-10T03:01:40;12.17;;;11.27;;
16468;SDS011;8345;50.902;6.956;2023-06-10T03:04:07;12.07;;;11.17;;
16468;SDS011;8345;50.902;6.956;2023-06-10T03:06:36;11.83;;;10.80;;
16468;SDS011;8345;50.902;6.956;2023-06-10T03:09:03;11.20;;;10.40;;
16468;SDS011;8345;50.902;6.956;2023-06-10T03:11:31;11.50;;;10.60;;
16468;SDS011;8345;50.902;6.956;2023-06-10T03:13:58;11.30;;;10.37;;
16468;SDS011;8345;50.902;6.956;2023-06-10T03:16:25;12.03;;;11.00;;
16468;SDS011;8345;50.902;6.956;2023-06-10T03:18:52;12.30;;;11.30;;
16468;SDS011;8345;50.902;6.956;2023-06-10T03:21:20;12.40;;;11.50;;
16468;SDS011;8345;50.902;6.956;2023-06-10T03:23:48;12.37;;;11.30;;
16468;SDS011;8345;50.902;6.956;2023-06-10T03:26:15;12.70;;;11.73;;
16468;SDS011;8345;50.902;6.956;2023-06-10T03:28:46;13.27;;;12.27;;
16468;SDS011;8345;50.902;6.956;2023-06-10T03:31:13;13.20;;;12.10;;
16468;SDS011;8345;50.902;6.956;2023-06-10T03:33:41;13.17;;;12.17;;
16468;SDS011;8345;50.902;6.956;2023-06-10T03:36:09;13.90;;;12.80;;
16468;SDS011;8345;50.902;6.956;2023-06-10T03:38:36;13.13;;;12.13;;
16468;SDS011;8345;50.902;6.956;2023-06-10T03:41:04;13.20;;;12.20;;
16468;SDS011;8345;50.902;6.956;2023-06-10T03:43:32;12.97;;;11.87;;
16468;SDS011;8345;50.902;6.956;2023-06-10T03:45:59;12.93;;;12.00;;
16468;SDS011;8345;50.902;6.956;2023-06-10T03:48:26;13.27;;;12.27;;
16468;SDS011;8345;50.902;6.956;2023-06-10T03:50:53;14.00;;;12.77;;
16468;SDS011;8345;50.902;6.956;2023-06-10T03:53:20;13.47;;;12.27;;
16468;SDS011;8345;50.902;6.956;2023-06-10T03:55:48;12.50;;;11.50;;
16468;SDS011;8345;50.902;6.956;2023-06-10T03:58:16;13.10;;;12.20;;
16468;SDS011;8345;50.902;6.956;2023-06-10T04:00:44;11.43;;;10.53;;
16468;SDS011;8345;50.902;6.956;2023-06-10T04:03:12;12.70;;;11.60;;
16468;SDS011;8345;50.902;6.956;2023-06-10T04:05:40;11.17;;;10.33;;
16468;SDS011;8345;50.902;6.956;2023-06-10T04:08:08;11.83;;;10.70;;
16468;SDS011;8345;50.902;6.956;2023-06-10T04:10:35;11.73;;;10.83;;
16468;SDS011;8345;50.902;6.956;2023-06-10T04:13:02;10.80;;;10.00;;
16468;SDS011;8345;50.902;6.956;2023-06-10T04:15:31;11.13;;;10.13;;
16468;SDS011;8345;50.902;6.956;2023-06-10T04:17:58;11.93;;;10.83;;
16468;SDS011;8345;50.902;6.956;2023-06-10T04:20:26;11.80;;;10.90;;
16468;SDS011;8345;50.902;6.956;2023-06-10T04:22:53;10.77;;;9.88;;
16468;SDS011;8345;50.902;6.956;2023-06-10T04:25:21;10.68;;;9.88;;
16468;SDS011;8345;50.902;6.956;2023-06-10T04:27:49;10.25;;;9.35;;
16468;SDS011;8345;50.902;6.956;2023-06-10T04:30:16;10.55;;;9.57;;
16468;SDS011;8345;50.902;6.956;2023-06-10T04:32:45;10.98;;;10.25;;
16468;SDS011;8345;50.902;6.956;2023-06-10T04:35:13;10.32;;;9.57;;
16468;SDS011;8345;50.902;6.956;2023-06-10T04:37:40;9.88;;;9.18;;
16468;SDS011;8345;50.902;6.956;2023-06-10T04:40:08;10.35;;;9.50;;
16468;SDS011;8345;50.902;6.956;2023-06-10T04:42:36;9.98;;;9.38;;
16468;SDS011;8345;50.902;6.956;2023-06-10T04:45:03;10.38;;;9.48;;
16468;SDS011;8345;50.902;6.956;2023-06-10T04:47:30;10.70;;;9.90;;
16468;SDS011;8345;50.902;6.956;2023-06-10T04:50:00;10.63;;;9.82;;
16468;SDS011;8345;50.902;6.956;2023-06-10T04:52:27;11.25;;;10.27;;
16468;SDS011;8345;50.902;6.956;2023-06-10T04:54:54;11.80;;;10.90;;
16468;SDS011;8345;50.902;6.956;2023-06-10T04:57:23;10.95;;;10.13;;
16468;SDS011;8345;50.902;6.956;2023-06-10T04:59:51;11.68;;;10.77;;
16468;SDS011;8345;50.902;6.956;2023-06-10T05:02:18;11.60;;;10.50;;
16468;SDS011;8345;50.902;6.956;2023-06-10T05:04:45;10.30;;;9.60;;
16468;SDS011;8345;50.902;6.956;2023-06-10T05:07:13;11.02;;;10.18;;
16468;SDS011;8345;50.902;6.956;2023-06-10T05:09:41;11.10;;;9.95;;
16468;SDS011;8345;50.902;6.956;2023-06-10T05:12:08;11.05;;;10.18;;
16468;SDS011;8345;50.902;6.956;2023-06-10T05:14:35;11.55;;;10.40;;
16468;SDS011;8345;50.902;6.956;2023-06-10T05:17:02;10.88;;;9.80;;
16468;SDS011;8345;50.902;6.956;2023-06-10T05:19:31;10.77;;;9.88;;
16468;SDS011;8345;50.902;6.956;2023-06-10T05:21:58;9.95;;;9.15;;
16468;SDS011;8345;50.902;6.956;2023-06-10T05:24:27;9.63;;;8.82;;
16468;SDS011;8345;50.902;6.956;2023-06-10T05:26:55;9.60;;;8.90;;
16468;SDS011;8345;50.902;6.956;2023-06-10T05:29:22;8.68;;;7.97;;
16468;SDS011;8345;50.902;6.956;2023-06-10T05:31:49;8.80;;;8.10;;
16468;SDS011;8345;50.902;6.956;2023-06-10T05:34:16;9.00;;;8.30;;
16468;SDS011;8345;50.902;6.956;2023-06-10T05:36:44;8.10;;;7.47;;
16468;SDS011;8345;50.902;6.956;2023-06-10T05:39:11;7.80;;;7.15;;
16468;SDS011;8345;50.902;6.956;2023-06-10T05:41:39;8.57;;;7.88;;
16468;SDS011;8345;50.902;6.956;2023-06-10T05:44:06;7.65;;;7.13;;
16468;SDS011;8345;50.902;6.956;2023-06-10T05:46:33;7.72;;;7.10;;
16468;SDS011;8345;50.902;6.956;2023-06-10T05:49:01;8.23;;;7.53;;
16468;SDS011;8345;50.902;6.956;2023-06-10T05:51:28;8.63;;;7.82;;
16468;SDS011;8345;50.902;6.956;2023-06-10T05:53:55;8.20;;;7.50;;
16468;SDS011;8345;50.902;6.956;2023-06-10T05:56:22;8.70;;;7.90;;
16468;SDS011;8345;50.902;6.956;2023-06-10T05:58:52;8.65;;;7.95;;
16468;SDS011;8345;50.902;6.956;2023-06-10T06:01:19;7.93;;;7.22;;
16468;SDS011;8345;50.902;6.956;2023-06-10T06:03:46;7.93;;;7.32;;
16468;SDS011;8345;50.902;6.956;2023-06-10T06:06:13;8.50;;;7.72;;
16468;SDS011;8345;50.902;6.956;2023-06-10T06:08:40;7.50;;;6.85;;
16468;SDS011;8345;50.902;6.956;2023-06-10T06:11:08;8.07;;;7.43;;
16468;SDS011;8345;50.902;6.956;2023-06-10T06:13:35;7.43;;;6.68;;
16468;SDS011;8345;50.902;6.956;2023-06-10T06:16:04;6.60;;;5.88;;
16468;SDS011;8345;50.902;6.956;2023-06-10T06:18:31;7.72;;;6.75;;
16468;SDS011;8345;50.902;6.956;2023-06-10T06:20:58;6.97;;;6.35;;
16468;SDS011;8345;50.902;6.956;2023-06-10T06:23:25;7.47;;;6.85;;
16468;SDS011;8345;50.902;6.956;2023-06-10T06:25:52;6.82;;;6.32;;
16468;SDS011;8345;50.902;6.956;2023-06-10T06:28:20;7.50;;;6.90;;
16468;SDS011;8345;50.902;6.956;2023-06-10T06:30:47;7.25;;;6.68;;
16468;SDS011;8345;50.902;6.956;2023-06-10T06:33:16;7.13;;;6.63;;
16468;SDS011;8345;50.902;6.956;2023-06-10T06:35:43;7.13;;;6.50;;
16468;SDS011;8345;50.902;6.956;2023-06-10T06:38:10;6.78;;;6.18;;
16468;SDS011;8345;50.902;6.956;2023-06-10T06:40:37;6.82;;;6.32;;
16468;SDS011;8345;50.902;6.956;2023-06-10T06:43:05;7.03;;;6.43;;
16468;SDS011;8345;50.902;6.956;2023-06-10T06:45:32;6.85;;;6.25;;
16468;SDS011;8345;50.902;6.956;2023-06-10T06:47:59;9.00;;;6.43;;
16468;SDS011;8345;50.902;6.956;2023-06-10T06:50:28;7.25;;;6.65;;
16468;SDS011;8345;50.902;6.956;2023-06-10T06:52:55;7.78;;;7.13;;
16468;SDS011;8345;50.902;6.956;2023-06-10T06:55:22;7.25;;;6.65;;
16468;SDS011;8345;50.902;6.956;2023-06-10T06:57:49;7.20;;;6.60;;
16468;SDS011;8345;50.902;6.956;2023-06-10T07:00:17;7.75;;;7.05;;
16468;SDS011;8345;50.902;6.956;2023-06-10T07:02:44;7.50;;;6.80;;
16468;SDS011;8345;50.902;6.956;2023-06-10T07:05:11;7.38;;;6.78;;
16468;SDS011;8345;50.902;6.956;2023-06-10T07:07:40;7.53;;;6.95;;
16468;SDS011;8345;50.902;6.956;2023-06-10T07:10:07;7.97;;;7.28;;
16468;SDS011;8345;50.902;6.956;2023-06-10T07:12:34;7.72;;;7.07;;
16468;SDS011;8345;50.902;6.956;2023-06-10T07:15:02;7.35;;;6.70;;
16468;SDS011;8345;50.902;6.956;2023-06-10T07:17:29;7.40;;;6.80;;
16468;SDS011;8345;50.902;6.956;2023-06-10T07:19:56;7.28;;;6.78;;
16468;SDS011;8345;50.902;6.956;2023-06-10T07:22:24;8.52;;;7.55;;
16468;SDS011;8345;50.902;6.956;2023-06-10T07:24:53;6.90;;;6.25;;
16468;SDS011;8345;50.902;6.956;2023-06-10T07:27:20;7.90;;;7.20;;
16468;SDS011;8345;50.902;6.956;2023-06-10T07:29:48;7.78;;;6.97;;
16468;SDS011;8345;50.902;6.956;2023-06-10T07:32:15;7.97;;;7.25;;
16468;SDS011;8345;50.902;6.956;2023-06-10T07:34:42;7.45;;;6.85;;
16468;SDS011;8345;50.902;6.956;2023-06-10T07:37:09;7.65;;;6.95;;
16468;SDS011;8345;50.902;6.956;2023-06-10T07:39:36;7.13;;;6.50;;
16468;SDS011;8345;50.902;6.956;2023-06-10T07:42:05;7.88;;;6.90;;
16468;SDS011;8345;50.902;6.956;2023-06-10T07:44:33;8.43;;;7.60;;
16468;SDS011;8345;50.902;6.956;2023-06-10T07:47:00;7.10;;;6.50;;
16468;SDS011;8345;50.902;6.956;2023-06-10T07:49:27;7.45;;;6.82;;
16468;SDS011;8345;50.902;6.956;2023-06-10T07:51:55;8.10;;;7.40;;
16468;SDS011;8345;50.902;6.956;2023-06-10T07:54:22;7.75;;;6.97;;
16468;SDS011;8345;50.902;6.956;2023-06-10T07:56:49;7.68;;;6.72;;
16468;SDS011;8345;50.902;6.956;2023-06-10T07:59:19;7.82;;;7.05;;
16468;SDS011;8345;50.902;6.956;2023-06-10T08:01:46;7.40;;;6.70;;
16468;SDS011;8345;50.902;6.956;2023-06-10T08:04:13;7.38;;;6.78;;
16468;SDS011;8345;50.902;6.956;2023-06-10T08:06:40;7.47;;;6.85;;
16468;SDS011;8345;50.902;6.956;2023-06-10T08:09:08;7.47;;;6.78;;
16468;SDS011;8345;50.902;6.956;2023-06-10T08:11:35;7.53;;;6.97;;
16468;SDS011;8345;50.902;6.956;2023-06-10T08:14:02;8.52;;;7.57;;
16468;SDS011;8345;50.902;6.956;2023-06-10T08:16:30;8.23;;;7.53;;
16468;SDS011;8345;50.902;6.956;2023-06-10T08:18:58;7.30;;;6.60;;
16468;SDS011;8345;50.902;6.956;2023-06-10T08:21:25;6.95;;;6.35;;
16468;SDS011;8345;50.902;6.956;2023-06-10T08:23:53;8.00;;;7.30;;
16468;SDS011;8345;50.902;6.956;2023-06-10T08:26:20;9.68;;;6.65;;
16468;SDS011;8345;50.902;6.956;2023-06-10T08:28:47;8.23;;;7.53;;
16468;SDS011;8345;50.902;6.956;2023-06-10T08:31:15;7.38;;;6.78;;
16468;SDS011;8345;50.902;6.956;2023-06-10T08:33:43;7.40;;;6.80;;
16468;SDS011;8345;50.902;6.956;2023-06-10T08:36:10;7.50;;;6.90;;
16468;SDS011;8345;50.902;6.956;2023-06-10T08:38:37;6.95;;;6.35;;
16468;SDS011;8345;50.902;6.956;2023-06-10T08:41:05;7.72;;;7.15;;
16468;SDS011;8345;50.902;6.956;2023-06-10T08:43:33;8.32;;;7.53;;
16468;SDS011;8345;50.902;6.956;2023-06-10T08:46:03;8.10;;;6.68;;
16468;SDS011;8345;50.902;6.956;2023-06-10T08:48:30;7.32;;;6.63;;
16468;SDS011;8345;50.902;6.956;2023-06-10T08:50:59;7.93;;;7.10;;
16468;SDS011;8345;50.902;6.956;2023-06-10T08:53:26;7.20;;;6.63;;
16468;SDS011;8345;50.902;6.956;2023-06-10T08:55:54;8.38;;;6.97;;
16468;SDS011;8345;50.902;6.956;2023-06-10T08:58:24;7.78;;;7.07;;
16468;SDS011;8345;50.902;6.956;2023-06-10T09:00:51;8.43;;;7.60;;
16468;SDS011;8345;50.902;6.956;2023-06-10T09:03:19;7.95;;;7.25;;
16468;SDS011;8345;50.902;6.956;2023-06-10T09:05:46;7.90;;;7.30;;
16468;SDS011;8345;50.902;6.956;2023-06-10T09:08:15;8.18;;;7.43;;
16468;SDS011;8345;50.902;6.956;2023-06-10T09:10:42;7.53;;;7.00;;
16468;SDS011;8345;50.902;6.956;2023-06-10T09:13:09;8.07;;;7.47;;
16468;SDS011;8345;50.902;6.956;2023-06-10T09:15:37;8.73;;;7.97;;
16468;SDS011;8345;50.902;6.956;2023-06-10T09:18:06;7.07;;;6.55;;
16468;SDS011;8345;50.902;6.956;2023-06-10T09:20:34;8.20;;;7.50;;
16468;SDS011;8345;50.902;6.956;2023-06-10T09:23:01;8.50;;;7.57;;
16468;SDS011;8345;50.902;6.956;2023-06-10T09:25:36;8.25;;;7.63;;
16468;SDS011;8345;50.902;6.956;2023-06-10T09:28:04;7.75;;;7.03;;
16468;SDS011;8345;50.902;6.956;2023-06-10T09:30:31;7.53;;;6.90;;
16468;SDS011;8345;50.902;6.956;2023-06-10T09:32:59;7.93;;;7.28;;
16468;SDS011;8345;50.902;6.956;2023-06-10T09:35:28;8.00;;;7.30;;
16468;SDS011;8345;50.902;6.956;2023-06-10T09:37:56;8.23;;;7.57;;
16468;SDS011;8345;50.902;6.956;2023-06-10T09:40:24;7.82;;;7.22;;
16468;SDS011;8345;50.902;6.956;2023-06-10T09:42:54;7.63;;;7.13;;
16468;SDS011;8345;50.902;6.956;2023-06-10T09:45:21;8.10;;;7.32;;
16468;SDS011;8345;50.902;6.956;2023-06-10T09:47:51;7.90;;;7.15;;
16468;SDS011;8345;50.902;6.956;2023-06-10T09:50:19;8.02;;;7.38;;
16468;SDS011;8345;50.902;6.956;2023-06-10T09:52:46;8.25;;;7.55;;
16468;SDS011;8345;50.902;6.956;2023-06-10T09:55:14;8.07;;;7.43;;
16468;SDS011;8345;50.902;6.956;2023-06-10T09:57:41;7.63;;;6.95;;
16468;SDS011;8345;50.902;6.956;2023-06-10T10:00:14;7.68;;;7.00;;
16468;SDS011;8345;50.902;6.956;2023-06-10T10:02:45;7.88;;;7.18;;
16468;SDS011;8345;50.902;6.956;2023-06-10T10:05:13;7.78;;;7.07;;
16468;SDS011;8345;50.902;6.956;2023-06-10T10:07:40;7.63;;;6.93;;
16468;SDS011;8345;50.902;6.956;2023-06-10T10:10:08;8.80;;;8.10;;
16468;SDS011;8345;50.902;6.956;2023-06-10T10:12:36;8.25;;;7.65;;
16468;SDS011;8345;50.902;6.956;2023-06-10T10:15:03;7.90;;;7.30;;
16468;SDS011;8345;50.902;6.956;2023-06-10T10:17:34;8.23;;;7.57;;
16468;SDS011;8345;50.902;6.956;2023-06-10T10:20:02;8.88;;;8.00;;
16468;SDS011;8345;50.902;6.956;2023-06-10T10:22:30;8.35;;;7.55;;
16468;SDS011;8345;50.902;6.956;2023-06-10T10:24:59;8.15;;;7.40;;
16468;SDS011;8345;50.902;6.956;2023-06-10T10:27:30;8.07;;;7.30;;
16468;SDS011;8345;50.902;6.956;2023-06-10T10:30:00;7.63;;;6.88;;
16468;SDS011;8345;50.902;6.956;2023-06-10T10:32:32;7.57;;;6.88;;
16468;SDS011;8345;50.902;6.956;2023-06-10T10:35:03;7.90;;;7.20;;
16468;SDS011;8345;50.902;6.956;2023-06-10T10:37:33;7.82;;;7.22;;
16468;SDS011;8345;50.902;6.956;2023-06-10T10:40:00;8.02;;;7.40;;
16468;SDS011;8345;50.902;6.956;2023-06-10T10:42:28;7.68;;;6.97;;
16468;SDS011;8345;50.902;6.956;2023-06-10T10:44:55;8.20;;;7.60;;
16468;SDS011;8345;50.902;6.956;2023-06-10T10:47:23;7.70;;;6.93;;
16468;SDS011;8345;50.902;6.956;2023-06-10T10:49:55;7.43;;;6.72;;
16468;SDS011;8345;50.902;6.956;2023-06-10T10:52:25;7.72;;;7.03;;
16468;SDS011;8345;50.902;6.956;2023-06-10T10:54:53;7.60;;;7.00;;
16468;SDS011;8345;50.902;6.956;2023-06-10T10:57:21;7.63;;;6.97;;
16468;SDS011;8345;50.902;6.956;2023-06-10T10:59:52;7.63;;;6.93;;
16468;SDS011;8345;50.902;6.956;2023-06-10T11:02:37;8.10;;;7.30;;
16468;SDS011;8345;50.902;6.956;2023-06-10T11:05:05;8.35;;;7.55;;
16468;SDS011;8345;50.902;6.956;2023-06-10T11:07:34;7.15;;;6.55;;
16468;SDS011;8345;50.902;6.956;2023-06-10T11:10:02;7.85;;;7.05;;
16468;SDS011;8345;50.902;6.956;2023-06-10T11:15:24;7.00;;;6.40;;
16468;SDS011;8345;50.902;6.956;2023-06-10T11:18:11;7.07;;;6.57;;
16468;SDS011;8345;50.902;6.956;2023-06-10T11:20:44;7.18;;;6.65;;
16468;SDS011;8345;50.902;6.956;2023-06-10T11:23:25;6.93;;;6.32;;
16468;SDS011;8345;50.902;6.956;2023-06-10T11:28:36;6.47;;;5.88;;
16468;SDS011;8345;50.902;6.956;2023-06-10T11:31:03;7.35;;;6.75;;
16468;SDS011;8345;50.902;6.956;2023-06-10T11:33:30;7.70;;;6.90;;
16468;SDS011;8345;50.902;6.956;2023-06-10T11:35:57;7.63;;;5.80;;
16468;SDS011;8345;50.902;6.956;2023-06-10T11:38:26;6.88;;;6.22;;
16468;SDS011;8345;50.902;6.956;2023-06-10T11:40:53;6.85;;;6.25;;
16468;SDS011;8345;50.902;6.956;2023-06-10T11:43:20;6.80;;;6.22;;
16468;SDS011;8345;50.902;6.956;2023-06-10T11:45:53;6.72;;;6.03;;
16468;SDS011;8345;50.902;6.956;2023-06-10T11:48:21;7.30;;;6.53;;
16468;SDS011;8345;50.902;6.956;2023-06-10T11:50:48;6.68;;;6.15;;
16468;SDS011;8345;50.902;6.956;2023-06-10T11:53:15;7.25;;;6.55;;
16468;SDS011;8345;50.902;6.956;2023-06-10T11:55:45;6.20;;;5.70;;
16468;SDS011;8345;50.902;6.956;2023-06-10T11:58:13;6.55;;;5.97;;
16468;SDS011;8345;50.902;6.956;2023-06-10T12:00:44;6.60;;;6.07;;
16468;SDS011;8345;50.902;6.956;2023-06-10T12:03:11;6.20;;;5.70;;
16468;SDS011;8345;50.902;6.956;2023-06-10T12:05:38;6.55;;;6.05;;
16468;SDS011;8345;50.902;6.956;2023-06-10T12:08:08;6.82;;;6.22;;
16468;SDS011;8345;50.902;6.956;2023-06-10T12:10:40;6.65;;;6.15;;
16468;SDS011;8345;50.902;6.956;2023-06-10T12:13:08;6.35;;;5.82;;
16468;SDS011;8345;50.902;6.956;2023-06-10T12:15:36;6.63;;;6.00;;
16468;SDS011;8345;50.902;6.956;2023-06-10T12:18:03;6.85;;;6.30;;
16468;SDS011;8345;50.902;6.956;2023-06-10T12:20:31;6.90;;;6.32;;
16468;SDS011;8345;50.902;6.956;2023-06-10T12:22:59;6.85;;;6.25;;
16468;SDS011;8345;50.902;6.956;2023-06-10T12:25:27;6.55;;;6.05;;
16468;SDS011;8345;50.902;6.956;2023-06-10T12:27:55;6.85;;;6.00;;
16468;SDS011;8345;50.902;6.956;2023-06-10T12:30:25;7.20;;;6.60;;
16468;SDS011;8345;50.902;6.956;2023-06-10T12:32:53;7.22;;;6.63;;
16468;SDS011;8345;50.902;6.956;2023-06-10T12:35:21;8.30;;;6.30;;
16468;SDS011;8345;50.902;6.956;2023-06-10T12:37:56;6.40;;;5.85;;
16468;SDS011;8345;50.902;6.956;2023-06-10T12:40:27;6.22;;;5.63;;
16468;SDS011;8345;50.902;6.956;2023-06-10T12:42:56;6.25;;;5.75;;
16468;SDS011;8345;50.902;6.956;2023-06-10T12:45:28;6.45;;;5.85;;
16468;SDS011;8345;50.902;6.956;2023-06-10T12:48:04;6.43;;;5.82;;
16468;SDS011;8345;50.902;6.956;2023-06-10T12:50:34;6.03;;;5.53;;
16468;SDS011;8345;50.902;6.956;2023-06-10T12:53:02;6.00;;;5.50;;
16468;SDS011;8345;50.902;6.956;2023-06-10T12:55:29;5.78;;;5.28;;
16468;SDS011;8345;50.902;6.956;2023-06-10T12:57:57;5.97;;;5.47;;
16468;SDS011;8345;50.902;6.956;2023-06-10T13:00:25;6.05;;;5.47;;
16468;SDS011;8345;50.902;6.956;2023-06-10T13:02:56;6.35;;;5.68;;
16468;SDS011;8345;50.902;6.956;2023-06-10T13:05:25;6.10;;;5.47;;
16468;SDS011;8345;50.902;6.956;2023-06-10T13:07:52;5.68;;;5.28;;
16468;SDS011;8345;50.902;6.956;2023-06-10T13:10:20;6.68;;;5.28;;
16468;SDS011;8345;50.902;6.956;2023-06-10T13:12:47;6.53;;;5.28;;
16468;SDS011;8345;50.902;6.956;2023-06-10T13:15:14;5.80;;;5.40;;
16468;SDS011;8345;50.902;6.956;2023-06-10T13:17:42;6.82;;;5.45;;
16468;SDS011;8345;50.902;6.956;2023-06-10T13:20:11;5.88;;;5.38;;
16468;SDS011;8345;50.902;6.956;2023-06-10T13:22:39;5.53;;;5.05;;
16468;SDS011;8345;50.902;6.956;2023-06-10T13:25:06;6.07;;;5.57;;
16468;SDS011;8345;50.902;6.956;2023-06-10T13:27:33;6.35;;;5.53;;
16468;SDS011;8345;50.902;6.956;2023-06-10T13:30:03;6.40;;;5.80;;
16468;SDS011;8345;50.902;6.956;2023-06-10T13:32:30;6.05;;;5.55;;
16468;SDS011;8345;50.902;6.956;2023-06-10T13:34:57;5.40;;;5.00;;
16468;SDS011;8345;50.902;6.956;2023-06-10T13:37:26;5.82;;;5.25;;
16468;SDS011;8345;50.902;6.956;2023-06-10T13:39:53;5.78;;;5.28;;
16468;SDS011;8345;50.902;6.956;2023-06-10T13:42:21;6.15;;;5.65;;
16468;SDS011;8345;50.902;6.956;2023-06-10T13:44:48;6.38;;;5.78;;
16468;SDS011;8345;50.902;6.956;2023-06-10T13:47:16;6.10;;;5.60;;
16468;SDS011;8345;50.902;6.956;2023-06-10T13:49:43;6.25;;;5.75;;
16468;SDS011;8345;50.902;6.956;2023-06-10T13:52:11;5.65;;;5.25;;
16468;SDS011;8345;50.902;6.956;2023-06-10T13:54:39;5.78;;;5.13;;
16468;SDS011;8345;50.902;6.956;2023-06-10T13:57:07;5.95;;;5.38;;
16468;SDS011;8345;50.902;6.956;2023-06-10T13:59:35;5.60;;;5.20;;
16468;SDS011;8345;50.902;6.956;2023-06-10T14:02:02;5.70;;;5.30;;
16468;SDS011;8345;50.902;6.956;2023-06-10T14:04:29;5.60;;;4.72;;
16468;SDS011;8345;50.902;6.956;2023-06-10T14:06:57;5.38;;;4.90;;
16468;SDS011;8345;50.902;6.956;2023-06-10T14:09:24;5.30;;;4.80;;
16468;SDS011;8345;50.902;6.956;2023-06-10T14:11:53;5.72;;;4.78;;
16468;SDS011;8345;50.902;6.956;2023-06-10T14:14:20;5.22;;;4.82;;
16468;SDS011;8345;50.902;6.956;2023-06-10T14:16:48;5.95;;;5.30;;
16468;SDS011;8345;50.902;6.956;2023-06-10T14:19:15;5.57;;;5.07;;
16468;SDS011;8345;50.902;6.956;2023-06-10T14:21:42;5.18;;;4.68;;
16468;SDS011;8345;50.902;6.956;2023-06-10T14:24:09;5.57;;;5.10;;
16468;SDS011;8345;50.902;6.956;2023-06-10T14:26:36;5.03;;;4.70;;
16468;SDS011;8345;50.902;6.956;2023-06-10T14:29:05;5.65;;;5.00;;
16468;SDS011;8345;50.902;6.956;2023-06-10T14:31:33;5.53;;;4.95;;
16468;SDS011;8345;50.902;6.956;2023-06-10T14:34:00;5.25;;;4.85;;
16468;SDS011;8345;50.902;6.956;2023-06-10T14:36:28;5.97;;;5.45;;
16468;SDS011;8345;50.902;6.956;2023-06-10T14:38:55;5.10;;;4.72;;
16468;SDS011;8345;50.902;6.956;2023-06-10T14:41:23;5.30;;;4.80;;
16468;SDS011;8345;50.902;6.956;2023-06-10T14:43:51;5.50;;;5.00;;
16468;SDS011;8345;50.902;6.956;2023-06-10T14:46:19;5.55;;;5.05;;
16468;SDS011;8345;50.902;6.956;2023-06-10T14:48:46;5.35;;;4.93;;
16468;SDS011;8345;50.902;6.956;2023-06-10T14:51:14;6.88;;;5.32;;
16468;SDS011;8345;50.902;6.956;2023-06-10T14:53:41;5.80;;;5.30;;
16468;SDS011;8345;50.902;6.956;2023-06-10T14:56:08;5.85;;;5.35;;
16468;SDS011;8345;50.902;6.956;2023-06-10T14:58:35;5.30;;;4.90;;
16468;SDS011;8345;50.902;6.956;2023-06-10T15:01:03;5.60;;;5.15;;
16468;SDS011;8345;50.902;6.956;2023-06-10T15:03:31;5.25;;;4.78;;